sensor_id;sensor_type;location;lat;lon;timestamp;temperature;humidity
58865;DHT22;45702;52.982;6.658;2023-06-10T00:00:34;17.70;88.80
58865;DHT22;45702;52.982;6.658;2023-06-10T00:03:01;17.70;88.50
58865;DHT22;45702;52.982;6.658;2023-06-10T00:05:27;17.70;88.40
58865;DHT22;45702;52.982;6.658;2023-06-10T00:07:55;17.70;88.40
58865;DHT22;45702;52.982;6.658;2023-06-10T00:10:22;17.60;88.30
58865;DHT22;45702;52.982;6.658;2023-06-10T00:12:48;17.60;88.40
58865;DHT22;45702;52.982;6.658;2023-06-10T00:15:13;17.60;88.50
58865;DHT22;45702;52.982;6.658;2023-06-10T00:17:39;17.50;89.30
58865;DHT22;45702;52.982;6.658;2023-06-10T00:20:10;17.50;88.80
58865;DHT22;45702;52.982;6.658;2023-06-10T00:22:37;17.50;88.70
58865;DHT22;45702;52.982;6.658;2023-06-10T00:25:05;17.40;89.00
58865;DHT22;45702;52.982;6.658;2023-06-10T00:27:32;17.40;89.50
58865;DHT22;45702;52.982;6.658;2023-06-10T00:30:04;17.40;88.80
58865;DHT22;45702;52.982;6.658;2023-06-10T00:32:33;17.40;88.80
58865;DHT22;45702;52.982;6.658;2023-06-10T00:34:58;17.30;89.20
58865;DHT22;45702;52.982;6.658;2023-06-10T00:37:24;17.30;89.30
58865;DHT22;45702;52.982;6.658;2023-06-10T00:39:50;17.30;89.40
58865;DHT22;45702;52.982;6.658;2023-06-10T00:42:16;17.20;89.40
58865;DHT22;45702;52.982;6.658;2023-06-10T00:44:41;17.20;89.50
58865;DHT22;45702;52.982;6.658;2023-06-10T00:47:07;17.20;89.60
58865;DHT22;45702;52.982;6.658;2023-06-10T00:49:33;17.10;89.50
58865;DHT22;45702;52.982;6.658;2023-06-10T00:52:01;17.10;89.50
58865;DHT22;45702;52.982;6.658;2023-06-10T00:54:27;17.10;89.70
58865;DHT22;45702;52.982;6.658;2023-06-10T00:56:53;17.00;89.80
58865;DHT22;45702;52.982;6.658;2023-06-10T00:59:20;17.00;90.00
58865;DHT22;45702;52.982;6.658;2023-06-10T01:01:46;17.00;90.20
58865;DHT22;45702;52.982;6.658;2023-06-10T01:04:14;16.90;90.10
58865;DHT22;45702;52.982;6.658;2023-06-10T01:06:54;16.90;90.00
58865;DHT22;45702;52.982;6.658;2023-06-10T01:12:31;16.80;89.80
58865;DHT22;45702;52.982;6.658;2023-06-10T01:15:00;16.80;89.10
58865;DHT22;45702;52.982;6.658;2023-06-10T01:17:26;16.70;89.60
58865;DHT22;45702;52.982;6.658;2023-06-10T01:19:56;16.70;89.90
58865;DHT22;45702;52.982;6.658;2023-06-10T01:22:26;16.70;89.90
58865;DHT22;45702;52.982;6.658;2023-06-10T01:25:02;16.70;90.00
58865;DHT22;45702;52.982;6.658;2023-06-10T01:27:32;16.60;90.00
58865;DHT22;45702;52.982;6.658;2023-06-10T01:30:11;16.60;90.00
58865;DHT22;45702;52.982;6.658;2023-06-10T01:32:43;16.60;90.00
58865;DHT22;45702;52.982;6.658;2023-06-10T01:35:10;16.50;90.10
58865;DHT22;45702;52.982;6.658;2023-06-10T01:37:38;16.40;90.10
58865;DHT22;45702;52.982;6.658;2023-06-10T01:40:05;16.40;90.20
58865;DHT22;45702;52.982;6.658;2023-06-10T01:42:32;16.40;89.10
58865;DHT22;45702;52.982;6.658;2023-06-10T01:44:58;16.30;90.00
58865;DHT22;45702;52.982;6.658;2023-06-10T01:47:24;16.30;90.10
58865;DHT22;45702;52.982;6.658;2023-06-10T01:49:50;16.30;90.20
58865;DHT22;45702;52.982;6.658;2023-06-10T01:52:16;16.30;90.30
58865;DHT22;45702;52.982;6.658;2023-06-10T01:54:42;16.20;90.40
58865;DHT22;45702;52.982;6.658;2023-06-10T01:57:08;16.20;90.50
58865;DHT22;45702;52.982;6.658;2023-06-10T01:59:33;16.20;90.70
58865;DHT22;45702;52.982;6.658;2023-06-10T02:01:59;16.10;90.70
58865;DHT22;45702;52.982;6.658;2023-06-10T02:04:25;16.10;90.80
58865;DHT22;45702;52.982;6.658;2023-06-10T02:06:50;16.10;90.90
58865;DHT22;45702;52.982;6.658;2023-06-10T02:09:17;16.00;91.00
58865;DHT22;45702;52.982;6.658;2023-06-10T02:11:44;16.00;91.10
58865;DHT22;45702;52.982;6.658;2023-06-10T02:14:10;15.90;91.30
58865;DHT22;45702;52.982;6.658;2023-06-10T02:16:35;15.90;91.40
58865;DHT22;45702;52.982;6.658;2023-06-10T02:19:01;15.80;91.60
58865;DHT22;45702;52.982;6.658;2023-06-10T02:21:28;15.80;91.80
58865;DHT22;45702;52.982;6.658;2023-06-10T02:23:54;15.70;91.90
58865;DHT22;45702;52.982;6.658;2023-06-10T02:26:20;15.70;92.00
58865;DHT22;45702;52.982;6.658;2023-06-10T02:28:46;15.70;92.10
58865;DHT22;45702;52.982;6.658;2023-06-10T02:31:13;15.70;92.20
58865;DHT22;45702;52.982;6.658;2023-06-10T02:33:38;15.60;92.40
58865;DHT22;45702;52.982;6.658;2023-06-10T02:36:06;15.60;92.60
58865;DHT22;45702;52.982;6.658;2023-06-10T02:38:32;15.50;92.70
58865;DHT22;45702;52.982;6.658;2023-06-10T02:40:57;15.50;92.80
58865;DHT22;45702;52.982;6.658;2023-06-10T02:43:23;15.40;93.00
58865;DHT22;45702;52.982;6.658;2023-06-10T02:45:48;15.40;93.10
58865;DHT22;45702;52.982;6.658;2023-06-10T02:48:14;15.30;93.30
58865;DHT22;45702;52.982;6.658;2023-06-10T02:50:40;15.20;93.40
58865;DHT22;45702;52.982;6.658;2023-06-10T02:53:06;15.20;93.50
58865;DHT22;45702;52.982;6.658;2023-06-10T02:55:31;15.20;93.80
58865;DHT22;45702;52.982;6.658;2023-06-10T02:57:58;15.10;94.10
58865;DHT22;45702;52.982;6.658;2023-06-10T03:00:24;15.10;94.20
58865;DHT22;45702;52.982;6.658;2023-06-10T03:02:50;15.00;94.40
58865;DHT22;45702;52.982;6.658;2023-06-10T03:05:16;15.00;94.60
58865;DHT22;45702;52.982;6.658;2023-06-10T03:07:42;15.00;94.80
58865;DHT22;45702;52.982;6.658;2023-06-10T03:10:08;14.90;94.90
58865;DHT22;45702;52.982;6.658;2023-06-10T03:12:34;14.90;95.10
58865;DHT22;45702;52.982;6.658;2023-06-10T03:14:59;14.90;95.30
58865;DHT22;45702;52.982;6.658;2023-06-10T03:17:25;14.80;95.30
58865;DHT22;45702;52.982;6.658;2023-06-10T03:19:51;14.80;95.50
58865;DHT22;45702;52.982;6.658;2023-06-10T03:22:17;14.70;95.70
58865;DHT22;45702;52.982;6.658;2023-06-10T03:24:42;14.70;95.90
58865;DHT22;45702;52.982;6.658;2023-06-10T03:27:10;14.70;96.10
58865;DHT22;45702;52.982;6.658;2023-06-10T03:29:39;14.70;96.30
58865;DHT22;45702;52.982;6.658;2023-06-10T03:32:05;14.70;96.50
58865;DHT22;45702;52.982;6.658;2023-06-10T03:34:31;14.60;96.70
58865;DHT22;45702;52.982;6.658;2023-06-10T03:36:58;14.60;96.80
58865;DHT22;45702;52.982;6.658;2023-06-10T03:39:24;14.60;97.10
58865;DHT22;45702;52.982;6.658;2023-06-10T03:41:52;14.60;97.20
58865;DHT22;45702;52.982;6.658;2023-06-10T03:44:18;14.50;97.40
58865;DHT22;45702;52.982;6.658;2023-06-10T03:46:43;14.60;97.60
58865;DHT22;45702;52.982;6.658;2023-06-10T03:49:09;14.50;97.70
58865;DHT22;45702;52.982;6.658;2023-06-10T03:51:36;14.50;98.00
58865;DHT22;45702;52.982;6.658;2023-06-10T03:54:02;14.50;98.20
58865;DHT22;45702;52.982;6.658;2023-06-10T03:56:28;14.50;98.40
58865;DHT22;45702;52.982;6.658;2023-06-10T03:58:54;14.50;98.60
58865;DHT22;45702;52.982;6.658;2023-06-10T04:01:20;14.50;98.80
58865;DHT22;45702;52.982;6.658;2023-06-10T04:03:47;14.50;99.00
58865;DHT22;45702;52.982;6.658;2023-06-10T04:06:14;14.40;99.20
58865;DHT22;45702;52.982;6.658;2023-06-10T04:08:40;14.50;99.40
58865;DHT22;45702;52.982;6.658;2023-06-10T04:11:06;14.50;99.60
58865;DHT22;45702;52.982;6.658;2023-06-10T04:13:31;14.50;99.80
58865;DHT22;45702;52.982;6.658;2023-06-10T04:15:57;14.50;99.90
58865;DHT22;45702;52.982;6.658;2023-06-10T04:18:23;14.50;99.90
58865;DHT22;45702;52.982;6.658;2023-06-10T04:20:49;14.60;99.90
58865;DHT22;45702;52.982;6.658;2023-06-10T04:23:14;14.60;99.90
58865;DHT22;45702;52.982;6.658;2023-06-10T04:25:40;14.60;99.90
58865;DHT22;45702;52.982;6.658;2023-06-10T04:28:06;14.60;99.90
58865;DHT22;45702;52.982;6.658;2023-06-10T04:30:33;14.60;99.90
58865;DHT22;45702;52.982;6.658;2023-06-10T04:32:59;14.70;99.90
58865;DHT22;45702;52.982;6.658;2023-06-10T04:35:25;14.70;99.90
58865;DHT22;45702;52.982;6.658;2023-06-10T04:37:54;14.80;99.90
58865;DHT22;45702;52.982;6.658;2023-06-10T04:40:22;14.80;99.90
58865;DHT22;45702;52.982;6.658;2023-06-10T04:42:48;14.80;99.90
58865;DHT22;45702;52.982;6.658;2023-06-10T04:45:14;14.90;99.90
58865;DHT22;45702;52.982;6.658;2023-06-10T04:47:40;14.90;99.90
58865;DHT22;45702;52.982;6.658;2023-06-10T04:50:06;14.90;99.90
58865;DHT22;45702;52.982;6.658;2023-06-10T04:52:32;14.90;99.90
58865;DHT22;45702;52.982;6.658;2023-06-10T04:54:59;15.00;99.90
58865;DHT22;45702;52.982;6.658;2023-06-10T04:57:24;15.00;99.90
58865;DHT22;45702;52.982;6.658;2023-06-10T04:59:52;15.00;99.90
58865;DHT22;45702;52.982;6.658;2023-06-10T05:02:17;15.00;99.90
58865;DHT22;45702;52.982;6.658;2023-06-10T05:04:43;15.10;99.90
58865;DHT22;45702;52.982;6.658;2023-06-10T05:07:09;15.10;99.90
58865;DHT22;45702;52.982;6.658;2023-06-10T05:09:35;15.20;99.90
58865;DHT22;45702;52.982;6.658;2023-06-10T05:12:01;15.20;99.90
58865;DHT22;45702;52.982;6.658;2023-06-10T05:14:27;15.20;99.90
58865;DHT22;45702;52.982;6.658;2023-06-10T05:16:53;15.30;99.90
58865;DHT22;45702;52.982;6.658;2023-06-10T05:19:19;15.30;99.90
58865;DHT22;45702;52.982;6.658;2023-06-10T05:21:45;15.30;99.90
58865;DHT22;45702;52.982;6.658;2023-06-10T05:24:11;15.40;99.90
58865;DHT22;45702;52.982;6.658;2023-06-10T05:26:37;15.40;99.90
58865;DHT22;45702;52.982;6.658;2023-06-10T05:29:04;15.40;99.90
58865;DHT22;45702;52.982;6.658;2023-06-10T05:31:30;15.50;99.90
58865;DHT22;45702;52.982;6.658;2023-06-10T05:33:56;15.50;99.90
58865;DHT22;45702;52.982;6.658;2023-06-10T05:36:21;15.50;99.90
58865;DHT22;45702;52.982;6.658;2023-06-10T05:38:47;15.60;99.90
58865;DHT22;45702;52.982;6.658;2023-06-10T05:41:13;15.60;99.90
58865;DHT22;45702;52.982;6.658;2023-06-10T05:43:38;15.70;99.90
58865;DHT22;45702;52.982;6.658;2023-06-10T05:46:05;15.70;99.90
58865;DHT22;45702;52.982;6.658;2023-06-10T05:48:31;15.80;99.90
58865;DHT22;45702;52.982;6.658;2023-06-10T05:50:56;15.80;99.90
58865;DHT22;45702;52.982;6.658;2023-06-10T05:53:22;15.90;99.90
58865;DHT22;45702;52.982;6.658;2023-06-10T05:55:48;15.90;99.90
58865;DHT22;45702;52.982;6.658;2023-06-10T05:58:14;16.00;99.90
58865;DHT22;45702;52.982;6.658;2023-06-10T06:00:40;16.00;99.90
58865;DHT22;45702;52.982;6.658;2023-06-10T06:03:09;16.00;99.90
58865;DHT22;45702;52.982;6.658;2023-06-10T06:05:36;16.10;99.90
58865;DHT22;45702;52.982;6.658;2023-06-10T06:08:05;16.10;99.90
58865;DHT22;45702;52.982;6.658;2023-06-10T06:10:31;16.20;99.90
58865;DHT22;45702;52.982;6.658;2023-06-10T06:12:57;16.20;99.90
58865;DHT22;45702;52.982;6.658;2023-06-10T06:15:23;16.30;99.90
58865;DHT22;45702;52.982;6.658;2023-06-10T06:17:49;16.30;99.90
58865;DHT22;45702;52.982;6.658;2023-06-10T06:20:18;16.40;99.90
58865;DHT22;45702;52.982;6.658;2023-06-10T06:22:44;16.40;99.90
58865;DHT22;45702;52.982;6.658;2023-06-10T06:25:10;16.50;99.90
58865;DHT22;45702;52.982;6.658;2023-06-10T06:27:36;16.50;99.90
58865;DHT22;45702;52.982;6.658;2023-06-10T06:30:02;16.60;99.90
58865;DHT22;45702;52.982;6.658;2023-06-10T06:32:28;16.60;99.90
58865;DHT22;45702;52.982;6.658;2023-06-10T06:34:54;16.70;99.90
58865;DHT22;45702;52.982;6.658;2023-06-10T06:37:24;16.70;99.90
58865;DHT22;45702;52.982;6.658;2023-06-10T06:39:51;16.80;99.90
58865;DHT22;45702;52.982;6.658;2023-06-10T06:42:17;16.90;99.90
58865;DHT22;45702;52.982;6.658;2023-06-10T06:44:44;16.90;99.90
58865;DHT22;45702;52.982;6.658;2023-06-10T06:47:09;16.90;99.90
58865;DHT22;45702;52.982;6.658;2023-06-10T06:49:35;17.00;99.90
58865;DHT22;45702;52.982;6.658;2023-06-10T06:52:01;17.00;99.90
58865;DHT22;45702;52.982;6.658;2023-06-10T06:54:27;17.10;99.90
58865;DHT22;45702;52.982;6.658;2023-06-10T06:56:53;17.10;99.90
58865;DHT22;45702;52.982;6.658;2023-06-10T06:59:19;17.10;99.90
58865;DHT22;45702;52.982;6.658;2023-06-10T07:01:46;17.10;99.90
58865;DHT22;45702;52.982;6.658;2023-06-10T07:04:14;17.20;99.90
58865;DHT22;45702;52.982;6.658;2023-06-10T07:06:40;17.20;99.90
58865;DHT22;45702;52.982;6.658;2023-06-10T07:09:07;17.20;99.90
58865;DHT22;45702;52.982;6.658;2023-06-10T07:11:34;17.30;99.90
58865;DHT22;45702;52.982;6.658;2023-06-10T07:14:00;17.40;99.90
58865;DHT22;45702;52.982;6.658;2023-06-10T07:16:25;17.40;99.90
58865;DHT22;45702;52.982;6.658;2023-06-10T07:18:52;17.50;99.90
58865;DHT22;45702;52.982;6.658;2023-06-10T07:21:18;17.50;99.90
58865;DHT22;45702;52.982;6.658;2023-06-10T07:23:44;17.60;99.90
58865;DHT22;45702;52.982;6.658;2023-06-10T07:26:11;17.60;99.90
58865;DHT22;45702;52.982;6.658;2023-06-10T07:28:39;17.70;99.90
58865;DHT22;45702;52.982;6.658;2023-06-10T07:31:06;17.70;99.90
58865;DHT22;45702;52.982;6.658;2023-06-10T07:33:32;17.80;99.90
58865;DHT22;45702;52.982;6.658;2023-06-10T07:35:58;17.90;99.90
58865;DHT22;45702;52.982;6.658;2023-06-10T07:38:27;17.90;99.90
58865;DHT22;45702;52.982;6.658;2023-06-10T07:40:52;18.00;99.90
58865;DHT22;45702;52.982;6.658;2023-06-10T07:43:18;18.10;99.80
58865;DHT22;45702;52.982;6.658;2023-06-10T07:45:44;18.20;98.90
58865;DHT22;45702;52.982;6.658;2023-06-10T07:48:10;18.20;98.20
58865;DHT22;45702;52.982;6.658;2023-06-10T07:50:36;18.30;97.80
58865;DHT22;45702;52.982;6.658;2023-06-10T07:53:02;18.40;97.30
58865;DHT22;45702;52.982;6.658;2023-06-10T07:55:31;18.50;96.90
58865;DHT22;45702;52.982;6.658;2023-06-10T07:57:57;18.50;96.40
58865;DHT22;45702;52.982;6.658;2023-06-10T08:00:23;18.70;95.80
58865;DHT22;45702;52.982;6.658;2023-06-10T08:02:49;18.70;95.50
58865;DHT22;45702;52.982;6.658;2023-06-10T08:05:16;18.80;94.90
58865;DHT22;45702;52.982;6.658;2023-06-10T08:07:42;18.90;94.70
58865;DHT22;45702;52.982;6.658;2023-06-10T08:10:09;18.90;94.30
58865;DHT22;45702;52.982;6.658;2023-06-10T08:12:35;19.00;93.50
58865;DHT22;45702;52.982;6.658;2023-06-10T08:15:02;19.10;92.90
58865;DHT22;45702;52.982;6.658;2023-06-10T08:17:32;19.20;92.50
58865;DHT22;45702;52.982;6.658;2023-06-10T08:19:58;19.30;92.10
58865;DHT22;45702;52.982;6.658;2023-06-10T08:22:24;19.40;91.70
58865;DHT22;45702;52.982;6.658;2023-06-10T08:24:50;19.40;91.40
58865;DHT22;45702;52.982;6.658;2023-06-10T08:27:16;19.50;91.50
58865;DHT22;45702;52.982;6.658;2023-06-10T08:29:42;19.60;91.60
58865;DHT22;45702;52.982;6.658;2023-06-10T08:32:09;19.70;91.50
58865;DHT22;45702;52.982;6.658;2023-06-10T08:34:39;19.80;91.00
58865;DHT22;45702;52.982;6.658;2023-06-10T08:37:09;19.90;90.90
58865;DHT22;45702;52.982;6.658;2023-06-10T08:39:38;20.00;90.80
58865;DHT22;45702;52.982;6.658;2023-06-10T08:44:49;20.10;90.40
58865;DHT22;45702;52.982;6.658;2023-06-10T08:47:18;20.20;89.80
58865;DHT22;45702;52.982;6.658;2023-06-10T08:49:47;20.30;88.60
58865;DHT22;45702;52.982;6.658;2023-06-10T08:52:20;20.40;87.50
58865;DHT22;45702;52.982;6.658;2023-06-10T08:54:59;20.50;86.30
58865;DHT22;45702;52.982;6.658;2023-06-10T08:57:26;20.60;86.00
58865;DHT22;45702;52.982;6.658;2023-06-10T08:59:56;20.70;85.70
58865;DHT22;45702;52.982;6.658;2023-06-10T09:02:24;20.80;83.50
58865;DHT22;45702;52.982;6.658;2023-06-10T09:04:50;20.90;81.60
58865;DHT22;45702;52.982;6.658;2023-06-10T09:07:16;21.00;81.00
58865;DHT22;45702;52.982;6.658;2023-06-10T09:09:43;21.10;81.40
58865;DHT22;45702;52.982;6.658;2023-06-10T09:12:10;21.20;79.70
58865;DHT22;45702;52.982;6.658;2023-06-10T09:14:37;21.40;78.20
58865;DHT22;45702;52.982;6.658;2023-06-10T09:17:03;21.50;78.00
58865;DHT22;45702;52.982;6.658;2023-06-10T09:19:29;21.60;76.50
58865;DHT22;45702;52.982;6.658;2023-06-10T09:21:55;21.90;76.10
58865;DHT22;45702;52.982;6.658;2023-06-10T09:24:22;22.10;74.70
58865;DHT22;45702;52.982;6.658;2023-06-10T09:26:49;22.30;73.50
58865;DHT22;45702;52.982;6.658;2023-06-10T09:29:16;22.50;71.60
58865;DHT22;45702;52.982;6.658;2023-06-10T09:31:43;22.70;69.80
58865;DHT22;45702;52.982;6.658;2023-06-10T09:34:11;22.90;68.80
58865;DHT22;45702;52.982;6.658;2023-06-10T09:36:37;23.10;68.60
58865;DHT22;45702;52.982;6.658;2023-06-10T09:39:04;23.20;68.90
58865;DHT22;45702;52.982;6.658;2023-06-10T09:41:40;23.40;68.80
58865;DHT22;45702;52.982;6.658;2023-06-10T09:44:17;23.50;68.20
58865;DHT22;45702;52.982;6.658;2023-06-10T09:46:46;23.60;67.50
58865;DHT22;45702;52.982;6.658;2023-06-10T09:49:12;23.80;66.40
58865;DHT22;45702;52.982;6.658;2023-06-10T09:51:52;23.90;64.70
58865;DHT22;45702;52.982;6.658;2023-06-10T09:54:18;23.90;64.50
58865;DHT22;45702;52.982;6.658;2023-06-10T09:56:50;23.90;64.70
58865;DHT22;45702;52.982;6.658;2023-06-10T09:59:28;24.10;63.30
58865;DHT22;45702;52.982;6.658;2023-06-10T10:01:55;24.30;62.30
58865;DHT22;45702;52.982;6.658;2023-06-10T10:04:25;24.30;60.90
58865;DHT22;45702;52.982;6.658;2023-06-10T10:06:51;24.40;59.40
58865;DHT22;45702;52.982;6.658;2023-06-10T10:09:16;24.50;58.10
58865;DHT22;45702;52.982;6.658;2023-06-10T10:11:44;24.60;57.90
58865;DHT22;45702;52.982;6.658;2023-06-10T10:14:10;24.60;58.40
58865;DHT22;45702;52.982;6.658;2023-06-10T10:16:37;24.70;58.20
58865;DHT22;45702;52.982;6.658;2023-06-10T10:19:23;24.80;56.80
58865;DHT22;45702;52.982;6.658;2023-06-10T10:21:53;24.80;56.10
58865;DHT22;45702;52.982;6.658;2023-06-10T10:24:26;24.90;56.10
58865;DHT22;45702;52.982;6.658;2023-06-10T10:26:58;25.00;55.50
58865;DHT22;45702;52.982;6.658;2023-06-10T10:29:33;25.00;56.00
58865;DHT22;45702;52.982;6.658;2023-06-10T10:32:01;25.00;55.30
58865;DHT22;45702;52.982;6.658;2023-06-10T10:34:42;25.00;55.50
58865;DHT22;45702;52.982;6.658;2023-06-10T10:37:09;25.10;54.90
58865;DHT22;45702;52.982;6.658;2023-06-10T10:39:36;25.10;53.00
58865;DHT22;45702;52.982;6.658;2023-06-10T10:42:03;25.10;51.70
58865;DHT22;45702;52.982;6.658;2023-06-10T10:44:31;25.10;51.20
58865;DHT22;45702;52.982;6.658;2023-06-10T10:47:02;25.10;51.40
58865;DHT22;45702;52.982;6.658;2023-06-10T10:49:30;25.10;52.60
58865;DHT22;45702;52.982;6.658;2023-06-10T10:54:29;25.20;51.30
58865;DHT22;45702;52.982;6.658;2023-06-10T11:02:36;25.40;50.00
58865;DHT22;45702;52.982;6.658;2023-06-10T11:05:05;25.40;51.20
58865;DHT22;45702;52.982;6.658;2023-06-10T11:07:32;25.50;51.60
58865;DHT22;45702;52.982;6.658;2023-06-10T11:12:25;25.70;52.60
58865;DHT22;45702;52.982;6.658;2023-06-10T11:14:55;25.70;52.50
58865;DHT22;45702;52.982;6.658;2023-06-10T11:17:21;25.80;52.00
58865;DHT22;45702;52.982;6.658;2023-06-10T11:19:47;25.80;51.30
58865;DHT22;45702;52.982;6.658;2023-06-10T11:22:17;25.90;51.50
58865;DHT22;45702;52.982;6.658;2023-06-10T11:24:50;26.00;50.60
58865;DHT22;45702;52.982;6.658;2023-06-10T11:27:23;26.00;50.00
58865;DHT22;45702;52.982;6.658;2023-06-10T11:32:33;26.00;48.70
58865;DHT22;45702;52.982;6.658;2023-06-10T11:35:00;26.00;47.90
58865;DHT22;45702;52.982;6.658;2023-06-10T11:37:28;26.10;48.10
58865;DHT22;45702;52.982;6.658;2023-06-10T11:39:54;26.10;48.10
58865;DHT22;45702;52.982;6.658;2023-06-10T11:42:23;26.20;47.30
58865;DHT22;45702;52.982;6.658;2023-06-10T11:44:53;26.30;46.10
58865;DHT22;45702;52.982;6.658;2023-06-10T11:47:20;26.30;45.60
58865;DHT22;45702;52.982;6.658;2023-06-10T11:49:56;26.40;45.50
58865;DHT22;45702;52.982;6.658;2023-06-10T11:52:30;26.50;46.10
58865;DHT22;45702;52.982;6.658;2023-06-10T11:54:57;26.50;46.60
58865;DHT22;45702;52.982;6.658;2023-06-10T11:57:23;26.60;46.40
58865;DHT22;45702;52.982;6.658;2023-06-10T11:59:49;26.70;45.30
58865;DHT22;45702;52.982;6.658;2023-06-10T12:02:16;26.80;45.30
58865;DHT22;45702;52.982;6.658;2023-06-10T12:04:41;26.90;45.30
58865;DHT22;45702;52.982;6.658;2023-06-10T12:07:07;27.00;45.20
58865;DHT22;45702;52.982;6.658;2023-06-10T12:09:33;27.10;44.70
58865;DHT22;45702;52.982;6.658;2023-06-10T12:12:01;27.20;44.50
58865;DHT22;45702;52.982;6.658;2023-06-10T12:14:50;27.20;45.10
58865;DHT22;45702;52.982;6.658;2023-06-10T12:19:58;27.50;43.20
58865;DHT22;45702;52.982;6.658;2023-06-10T12:22:25;27.50;42.10
58865;DHT22;45702;52.982;6.658;2023-06-10T12:24:59;27.50;42.40
58865;DHT22;45702;52.982;6.658;2023-06-10T12:27:25;27.50;42.60
58865;DHT22;45702;52.982;6.658;2023-06-10T12:29:54;27.60;42.60
58865;DHT22;45702;52.982;6.658;2023-06-10T12:32:20;27.70;41.90
58865;DHT22;45702;52.982;6.658;2023-06-10T12:35:02;27.80;41.40
58865;DHT22;45702;52.982;6.658;2023-06-10T12:37:29;27.80;41.80
58865;DHT22;45702;52.982;6.658;2023-06-10T12:39:55;27.80;41.10
58865;DHT22;45702;52.982;6.658;2023-06-10T12:42:22;27.80;41.70
58865;DHT22;45702;52.982;6.658;2023-06-10T12:44:53;27.90;41.60
58865;DHT22;45702;52.982;6.658;2023-06-10T12:47:19;27.80;41.80
58865;DHT22;45702;52.982;6.658;2023-06-10T12:49:44;27.90;41.80
58865;DHT22;45702;52.982;6.658;2023-06-10T12:52:10;27.90;42.10
58865;DHT22;45702;52.982;6.658;2023-06-10T12:54:36;27.90;42.10
58865;DHT22;45702;52.982;6.658;2023-06-10T12:57:02;27.90;42.40
58865;DHT22;45702;52.982;6.658;2023-06-10T12:59:28;28.00;42.90
58865;DHT22;45702;52.982;6.658;2023-06-10T13:01:55;28.10;43.10
58865;DHT22;45702;52.982;6.658;2023-06-10T13:04:21;28.20;42.60
58865;DHT22;45702;52.982;6.658;2023-06-10T13:06:47;28.30;42.40
58865;DHT22;45702;52.982;6.658;2023-06-10T13:09:13;28.30;42.60
58865;DHT22;45702;52.982;6.658;2023-06-10T13:11:39;28.30;43.20
58865;DHT22;45702;52.982;6.658;2023-06-10T13:14:06;28.40;42.60
58865;DHT22;45702;52.982;6.658;2023-06-10T13:16:32;28.40;43.00
58865;DHT22;45702;52.982;6.658;2023-06-10T13:18:58;28.40;43.60
58865;DHT22;45702;52.982;6.658;2023-06-10T13:21:24;28.50;43.80
58865;DHT22;45702;52.982;6.658;2023-06-10T13:23:51;28.70;44.10
58865;DHT22;45702;52.982;6.658;2023-06-10T13:26:17;28.90;42.40
58865;DHT22;45702;52.982;6.658;2023-06-10T13:28:45;29.30;42.20
58865;DHT22;45702;52.982;6.658;2023-06-10T13:31:11;29.60;41.70
58865;DHT22;45702;52.982;6.658;2023-06-10T13:33:37;30.00;42.00
58865;DHT22;45702;52.982;6.658;2023-06-10T13:36:04;30.20;42.10
58865;DHT22;45702;52.982;6.658;2023-06-10T13:38:30;30.50;41.90
58865;DHT22;45702;52.982;6.658;2023-06-10T13:40:55;30.70;41.50
58865;DHT22;45702;52.982;6.658;2023-06-10T13:43:21;30.90;40.20
58865;DHT22;45702;52.982;6.658;2023-06-10T13:45:47;31.20;37.70
58865;DHT22;45702;52.982;6.658;2023-06-10T13:48:12;31.50;39.70
58865;DHT22;45702;52.982;6.658;2023-06-10T13:50:38;31.70;36.60
58865;DHT22;45702;52.982;6.658;2023-06-10T13:53:04;31.90;35.80
58865;DHT22;45702;52.982;6.658;2023-06-10T13:55:30;32.00;34.80
58865;DHT22;45702;52.982;6.658;2023-06-10T13:57:55;32.10;34.80
58865;DHT22;45702;52.982;6.658;2023-06-10T14:00:21;32.30;35.80
58865;DHT22;45702;52.982;6.658;2023-06-10T14:02:47;32.40;34.90
58865;DHT22;45702;52.982;6.658;2023-06-10T14:05:12;32.60;35.20
58865;DHT22;45702;52.982;6.658;2023-06-10T14:07:38;32.70;34.70
58865;DHT22;45702;52.982;6.658;2023-06-10T14:10:06;32.80;35.20
58865;DHT22;45702;52.982;6.658;2023-06-10T14:12:34;32.70;35.70
58865;DHT22;45702;52.982;6.658;2023-06-10T14:15:00;32.50;36.00
58865;DHT22;45702;52.982;6.658;2023-06-10T14:17:26;32.20;36.30
58865;DHT22;45702;52.982;6.658;2023-06-10T14:19:51;32.20;36.40
58865;DHT22;45702;52.982;6.658;2023-06-10T14:22:17;32.10;36.30
58865;DHT22;45702;52.982;6.658;2023-06-10T14:24:43;32.10;36.40
58865;DHT22;45702;52.982;6.658;2023-06-10T14:27:08;32.30;35.80
58865;DHT22;45702;52.982;6.658;2023-06-10T14:29:34;32.60;36.00
58865;DHT22;45702;52.982;6.658;2023-06-10T14:32:01;32.90;36.20
58865;DHT22;45702;52.982;6.658;2023-06-10T14:34:27;33.20;36.60
58865;DHT22;45702;52.982;6.658;2023-06-10T14:36:59;33.40;36.60
58865;DHT22;45702;52.982;6.658;2023-06-10T14:39:25;33.60;36.10
58865;DHT22;45702;52.982;6.658;2023-06-10T14:41:51;33.70;34.60
58865;DHT22;45702;52.982;6.658;2023-06-10T14:44:18;33.80;34.20
58865;DHT22;45702;52.982;6.658;2023-06-10T14:46:44;33.90;34.90
58865;DHT22;45702;52.982;6.658;2023-06-10T14:49:10;34.10;34.60
58865;DHT22;45702;52.982;6.658;2023-06-10T14:51:35;34.30;35.00
58865;DHT22;45702;52.982;6.658;2023-06-10T14:54:01;34.60;34.10
58865;DHT22;45702;52.982;6.658;2023-06-10T14:56:27;34.60;33.00
58865;DHT22;45702;52.982;6.658;2023-06-10T14:58:52;34.80;33.00
58865;DHT22;45702;52.982;6.658;2023-06-10T15:01:18;35.20;33.00
58865;DHT22;45702;52.982;6.658;2023-06-10T15:03:44;35.40;32.50
58865;DHT22;45702;52.982;6.658;2023-06-10T15:06:10;35.50;32.00
58865;DHT22;45702;52.982;6.658;2023-06-10T15:08:35;35.60;31.70
58865;DHT22;45702;52.982;6.658;2023-06-10T15:11:01;35.70;31.50
58865;DHT22;45702;52.982;6.658;2023-06-10T15:13:28;35.70;31.40
58865;DHT22;45702;52.982;6.658;2023-06-10T15:15:53;35.90;31.50
58865;DHT22;45702;52.982;6.658;2023-06-10T15:18:19;36.10;31.50
58865;DHT22;45702;52.982;6.658;2023-06-10T15:20:45;36.20;31.00
58865;DHT22;45702;52.982;6.658;2023-06-10T15:23:11;36.40;30.80
58865;DHT22;45702;52.982;6.658;2023-06-10T15:25:36;36.50;29.70
58865;DHT22;45702;52.982;6.658;2023-06-10T15:28:02;36.80;29.20
58865;DHT22;45702;52.982;6.658;2023-06-10T15:30:29;37.10;28.70
58865;DHT22;45702;52.982;6.658;2023-06-10T15:32:54;37.30;29.00
58865;DHT22;45702;52.982;6.658;2023-06-10T15:35:20;37.60;29.70
58865;DHT22;45702;52.982;6.658;2023-06-10T15:37:46;37.90;29.30
58865;DHT22;45702;52.982;6.658;2023-06-10T15:40:11;38.10;28.60
58865;DHT22;45702;52.982;6.658;2023-06-10T15:42:37;38.30;28.00
58865;DHT22;45702;52.982;6.658;2023-06-10T15:45:03;38.40;27.10
58865;DHT22;45702;52.982;6.658;2023-06-10T15:47:29;38.60;25.90
58865;DHT22;45702;52.982;6.658;2023-06-10T15:49:55;38.70;25.70